Tropical Cyclones
[Index]
Main Index Home Page Stock Weather Photos Extreme Storms Discussion Storm News and Storm Chasing Reports Tropical Cyclones / Hurricanes / Typhoons Weather Data and Links Wild Fires / Bushfires Weather Observation Techniques Weather Picture Catalogue Tornado Pictures and Reports Stock Video Footage and DVDs for sale
Season 2019-2020 Tropical Cyclone 202009 Track Map
Season 2019-2020 Summaries (Operational Data): [AU] [SIO] [SPAC] [SH]
<<- Previous TC | 2019-2020 Season | Next TC ->>

click for intensity scale information  Lat/long Grid: Show Hide

 Date Labels: Show Hide

Operational Tropical Cyclone Data

Name: 202009
Number: 2009

17 Jan 2020 00:00 UTC to 23 Jan 2020 18:00 UTC

    date/time    lat    long     hPa   cat  kts
2020-01-17 00    6.1    59.1    1010         15          
2020-01-17 06    6.4    60.0    1010         15          
2020-01-17 12    6.8    60.8    1010         15          
2020-01-17 18    7.3    61.5    1008         15          
2020-01-18 00    7.9    61.5    1006         15          
2020-01-18 06    9.2    61.7    1007         15          
2020-01-18 12    9.5    62.0    1006         15          
2020-01-18 18    9.8    62.2    1008         15          
2020-01-19 00   10.1    62.5    1005         15          
2020-01-19 06   10.5    63.0    1005         20          
2020-01-19 12   10.6    63.4    1002         25          
2020-01-19 18   10.8    63.9    1004         25          
2020-01-20 00   12.0    64.5    1003         25          
2020-01-20 06   12.5    64.8    1002         30          
2020-01-20 12   13.2    65.2    1002         30          
2020-01-20 18   13.9    65.6    1003         30          
2020-01-21 00   14.9    66.2    1002         30          
2020-01-21 06   16.1    66.8    1003         30          
2020-01-21 12   17.2    67.4    1002         30          
2020-01-21 18   18.1    67.8    1002         30          
2020-01-22 00   18.8    68.3    1001         30          
2020-01-22 06   19.6    69.0    1001         30          
2020-01-22 12   20.2    69.6    1000    1    35          
2020-01-22 18   21.1    70.3    1005    1    35          
2020-01-23 00   22.3    71.0    1003    1    35          
2020-01-23 06   23.4    71.5    1005         30          
2020-01-23 12   24.9    72.0    1006         25          
2020-01-23 18   26.5    72.0    1005         25          
Winds are 10-min average.

Tropical cyclone tracks developed by Michael Bath using operational warnings and advisories and Google Maps.


[Australian Severe Weather index] [Copyright Notice] [Email Contacts] [Search This Site] [Privacy Policy]
Document: tropical_cyclone_202009.htm Updated: 11 March 2020